Time;durP1;ratioP1;P1;durP2;ratioP2;P2;SDS_P1;SDS_P2;PMS_P1;PMS_P2;Temp;Humidity;BMP_temperature;BMP_pressure;BME280_temperature;BME280_humidity;BME280_pressure;Samples;Min_cycle;Max_cycle;Signal;HPM_P1;HPM_P2
2023/05/09 00:02:02;;;;;;;11.50;4.50;;;;;;;3.83;72.60;101694.46;105838;1254;69971;-45
2023/05/09 00:04:31;;;;;;;6.10;4.00;;;;;;;3.81;72.81;101693.23;105799;1251;74982;-45
2023/05/09 00:07:00;;;;;;;6.50;4.50;;;;;;;3.78;72.84;101694.41;105924;1254;83403;-44
2023/05/09 00:09:28;;;;;;;7.10;4.40;;;;;;;3.76;73.12;101694.05;105954;1251;73882;-44
2023/05/09 00:11:56;;;;;;;5.30;3.90;;;;;;;3.73;73.08;101693.83;105972;1253;69947;-45
2023/05/09 00:14:26;;;;;;;7.00;4.40;;;;;;;3.70;73.10;101695.01;105908;1253;69951;-45
2023/05/09 00:16:56;;;;;;;6.00;4.00;;;;;;;3.67;73.41;101692.55;105977;1251;73559;-44
2023/05/09 00:19:24;;;;;;;7.70;4.80;;;;;;;3.64;73.44;101687.34;105812;1253;82626;-44
2023/05/09 00:21:53;;;;;;;11.40;6.60;;;;;;;3.62;73.39;101690.92;105901;1254;72438;-45
2023/05/09 00:24:21;;;;;;;12.00;6.30;;;;;;;3.61;73.51;101685.21;105957;1253;69983;-44
2023/05/09 00:26:49;;;;;;;9.20;5.40;;;;;;;3.58;73.48;101683.61;105892;1254;69915;-44
2023/05/09 00:29:18;;;;;;;7.20;4.50;;;;;;;3.55;73.57;101683.61;105990;1253;73921;-45
2023/05/09 00:31:46;;;;;;;8.40;4.30;;;;;;;3.54;73.67;101683.40;105738;1253;82546;-44
2023/05/09 00:34:14;;;;;;;7.70;4.20;;;;;;;3.52;73.63;101680.61;105933;1253;72978;-45
2023/05/09 00:36:42;;;;;;;5.60;3.90;;;;;;;3.49;73.88;101678.16;105675;1257;69937;-44
2023/05/09 00:39:12;;;;;;;7.50;4.40;;;;;;;3.45;73.75;101677.94;105915;1253;69941;-44
2023/05/09 00:41:40;;;;;;;9.70;3.90;;;;;;;3.43;73.95;101675.48;105928;1262;74341;-44
2023/05/09 00:44:08;;;;;;;9.80;4.50;;;;;;;3.41;74.06;101674.08;105778;1263;84140;-44
2023/05/09 00:46:38;;;;;;;9.60;5.30;;;;;;;3.40;74.33;101672.16;105843;1251;72648;-44
2023/05/09 00:49:07;;;;;;;10.80;6.20;;;;;;;3.37;74.15;101668.14;105891;1254;70015;-45
2023/05/09 00:51:36;;;;;;;13.50;7.30;;;;;;;3.33;74.21;101667.58;105690;1254;69912;-45
2023/05/09 00:54:04;;;;;;;24.00;8.80;;;;;;;3.30;74.23;101663.75;105925;1254;74897;-45
2023/05/09 00:56:36;;;;;;;17.50;7.70;;;;;;;3.29;74.46;101662.52;105887;1252;83284;-44
2023/05/09 00:59:05;;;;;;;13.10;7.70;;;;;;;3.27;74.67;101664.20;105945;1253;73083;-44
2023/05/09 01:01:33;;;;;;;23.30;11.10;;;;;;;3.26;74.70;101658.50;105909;1251;70033;-45
2023/05/09 01:04:02;;;;;;;24.80;12.10;;;;;;;3.23;74.74;101656.73;105918;1252;70021;-45
2023/05/09 01:07:04;;;;;;;24.10;11.20;;;;;;;3.20;74.71;101654.11;105687;1254;74943;-44
2023/05/09 01:09:39;;;;;;;17.20;10.00;;;;;;;3.19;74.89;101654.61;105509;1260;84519;-45
2023/05/09 01:12:22;;;;;;;16.70;8.80;;;;;;;3.17;74.80;101653.73;106020;1254;71589;-44
2023/05/09 01:15:10;;;;;;;13.80;6.60;;;;;;;3.15;75.06;101656.98;105879;1253;69943;-44
2023/05/09 01:17:58;;;;;;;11.90;6.10;;;;;;;3.13;75.07;101655.58;105908;1252;69991;-45
2023/05/09 01:20:57;;;;;;;8.40;5.40;;;;;;;3.10;75.15;101658.47;105928;1257;74567;-44
2023/05/09 01:24:07;;;;;;;7.20;4.90;;;;;;;3.07;75.09;101658.94;105882;1254;83466;-45
2023/05/09 01:26:54;;;;;;;11.10;5.60;;;;;;;3.04;75.37;101655.11;105889;1253;73205;-46
2023/05/09 01:29:35;;;;;;;6.40;4.80;;;;;;;3.03;75.45;101654.74;105630;1255;70031;-44
2023/05/09 01:32:09;;;;;;;12.50;5.10;;;;;;;3.01;75.52;101650.22;105801;1254;69960;-42
2023/05/09 01:34:39;;;;;;;7.70;4.70;;;;;;;3.01;75.68;101649.35;105659;1254;75164;-42
2023/05/09 01:37:08;;;;;;;8.10;4.80;;;;;;;2.99;75.56;101649.33;105734;1263;83327;-43
2023/05/09 01:39:39;;;;;;;8.00;4.60;;;;;;;2.98;75.70;101651.73;105725;1253;73543;-43
2023/05/09 01:42:08;;;;;;;8.70;4.50;;;;;;;2.96;75.66;101652.05;105667;1254;70001;-43
2023/05/09 01:44:39;;;;;;;7.00;4.20;;;;;;;2.96;76.03;101661.21;105876;1253;69887;-45
2023/05/09 01:47:08;;;;;;;7.50;4.30;;;;;;;2.96;75.80;101658.42;105707;1254;75084;-42
2023/05/09 01:49:37;;;;;;;6.60;4.70;;;;;;;2.94;76.14;101660.66;105636;1254;83744;-42
2023/05/09 01:52:09;;;;;;;18.90;4.70;;;;;;;2.93;76.17;101659.26;105839;1249;73779;-42
2023/05/09 01:54:39;;;;;;;9.00;5.00;;;;;;;2.92;76.28;101653.02;105609;1251;69926;-44
2023/05/09 01:57:08;;;;;;;8.20;5.10;;;;;;;2.90;76.35;101652.14;105710;1263;70017;-42
2023/05/09 01:59:41;;;;;;;8.00;4.40;;;;;;;2.87;76.34;101645.02;105629;1257;73934;-43
2023/05/09 02:02:10;;;;;;;8.00;5.10;;;;;;;2.84;76.51;101643.94;105584;1256;84018;-43
2023/05/09 02:04:41;;;;;;;8.30;5.00;;;;;;;2.85;76.65;101642.04;105763;1253;73502;-43
2023/05/09 02:07:10;;;;;;;7.00;4.80;;;;;;;2.84;76.62;101641.86;105692;1251;69985;-42
2023/05/09 02:09:38;;;;;;;7.70;4.90;;;;;;;2.83;76.70;101639.10;105738;1254;69927;-43
2023/05/09 02:12:06;;;;;;;10.60;5.60;;;;;;;2.83;76.72;101639.77;105725;1253;74800;-43
2023/05/09 02:14:35;;;;;;;8.20;5.10;;;;;;;2.81;76.84;101638.89;105715;1250;84208;-44
2023/05/09 02:17:05;;;;;;;6.90;4.70;;;;;;;2.79;76.57;101638.68;105603;1255;73068;-44
2023/05/09 02:19:34;;;;;;;8.10;4.90;;;;;;;2.75;76.57;101639.83;105695;1253;69912;-44
2023/05/09 02:22:03;;;;;;;9.20;5.40;;;;;;;2.72;76.78;101637.04;105742;1253;69977;-44
2023/05/09 02:24:35;;;;;;;8.50;5.30;;;;;;;2.70;76.70;101636.98;105736;1251;75042;-44
2023/05/09 02:27:04;;;;;;;9.30;6.40;;;;;;;2.69;76.89;101632.33;105681;1263;84196;-43
2023/05/09 02:29:39;;;;;;;8.20;6.10;;;;;;;2.68;76.77;101630.23;105678;1253;72719;-44
2023/05/09 02:32:10;;;;;;;8.70;6.30;;;;;;;2.66;76.97;101626.23;105711;1251;69928;-45
2023/05/09 02:34:39;;;;;;;9.60;6.80;;;;;;;2.63;76.68;101625.17;105787;1253;69938;-43
2023/05/09 02:37:09;;;;;;;10.20;6.80;;;;;;;2.61;77.16;101624.10;105770;1250;74952;-43
2023/05/09 02:39:37;;;;;;;9.50;6.50;;;;;;;2.60;77.13;101622.86;105721;1256;83274;-44
2023/05/09 02:42:08;;;;;;;9.90;6.00;;;;;;;2.59;77.15;101620.45;105709;1254;73459;-43
2023/05/09 02:44:37;;;;;;;15.00;6.40;;;;;;;2.57;77.21;101619.20;105670;1254;69890;-43
2023/05/09 02:47:06;;;;;;;12.60;7.30;;;;;;;2.56;77.19;101614.52;105852;1252;69966;-44
2023/05/09 02:49:35;;;;;;;10.90;6.70;;;;;;;2.55;77.18;101620.21;105777;1253;75331;-44
2023/05/09 02:52:04;;;;;;;9.20;6.60;;;;;;;2.54;77.50;101617.07;105700;1253;83608;-44
2023/05/09 02:54:33;;;;;;;9.80;6.60;;;;;;;2.53;77.28;101613.61;105637;1254;74064;-43
2023/05/09 02:57:01;;;;;;;10.40;6.60;;;;;;;2.51;77.54;101615.13;105712;1250;69969;-44
2023/05/09 02:59:29;;;;;;;11.60;6.20;;;;;;;2.47;77.35;101615.60;105685;1253;70008;-43
2023/05/09 03:02:01;;;;;;;10.90;6.50;;;;;;;2.45;77.48;101615.39;105675;1255;74286;-43
2023/05/09 03:04:30;;;;;;;9.70;6.30;;;;;;;2.42;77.47;101618.63;105669;1255;83175;-45
2023/05/09 03:06:58;;;;;;;8.40;6.20;;;;;;;2.39;77.67;101620.30;105659;1257;72373;-43
2023/05/09 03:09:30;;;;;;;7.60;5.60;;;;;;;2.36;77.72;101620.42;105627;1254;69940;-45
2023/05/09 03:11:59;;;;;;;9.60;6.30;;;;;;;2.35;77.69;101618.68;105706;1254;70089;-44
2023/05/09 03:14:27;;;;;;;9.90;6.20;;;;;;;2.35;77.95;101617.98;105729;1254;73786;-43
2023/05/09 03:16:55;;;;;;;7.80;5.60;;;;;;;2.33;77.64;101612.80;105612;1264;83336;-45
2023/05/09 03:19:31;;;;;;;9.50;5.60;;;;;;;2.32;77.86;101616.39;105952;1253;72433;-44
2023/05/09 03:22:00;;;;;;;10.50;5.80;;;;;;;2.31;77.87;101607.92;105804;1254;69969;-44
2023/05/09 03:24:29;;;;;;;10.20;5.60;;;;;;;2.31;77.99;101608.61;105713;1254;70274;-45
2023/05/09 03:26:58;;;;;;;8.90;6.40;;;;;;;2.30;78.03;101605.48;105618;1254;74684;-44
2023/05/09 03:29:26;;;;;;;8.30;5.90;;;;;;;2.29;77.92;101602.37;105717;1253;83872;-43
2023/05/09 03:31:55;;;;;;;8.80;5.60;;;;;;;2.27;78.02;101599.73;105621;1251;73416;-44
2023/05/09 03:34:23;;;;;;;9.60;6.00;;;;;;;2.26;78.12;101597.33;105657;1253;69986;-43
2023/05/09 03:36:51;;;;;;;8.90;6.00;;;;;;;2.25;77.87;101597.31;105804;1251;69944;-45
2023/05/09 03:39:20;;;;;;;12.30;6.20;;;;;;;2.25;78.18;101599.55;105768;1253;74515;-44
2023/05/09 03:41:50;;;;;;;10.00;6.10;;;;;;;2.27;78.43;101603.02;105675;1251;84406;-45
2023/05/09 03:44:18;;;;;;;11.50;6.10;;;;;;;2.28;78.59;101604.94;105674;1254;73776;-44
2023/05/09 03:46:46;;;;;;;7.40;5.70;;;;;;;2.30;78.69;101602.73;105719;1249;70049;-44
2023/05/09 03:49:15;;;;;;;10.20;6.30;;;;;;;2.32;79.05;101609.65;105708;1251;70008;-44
2023/05/09 03:51:46;;;;;;;11.10;6.00;;;;;;;2.33;78.96;101608.81;105619;1256;73835;-44
2023/05/09 03:54:15;;;;;;;10.80;6.00;;;;;;;2.35;78.90;101611.61;105762;1253;84233;-44
2023/05/09 03:56:44;;;;;;;8.20;5.90;;;;;;;2.37;78.99;101611.65;105699;1253;73437;-44
2023/05/09 03:59:12;;;;;;;10.40;6.40;;;;;;;2.42;79.36;101611.73;105983;1254;69913;-45
2023/05/09 04:01:41;;;;;;;10.40;6.20;;;;;;;2.46;79.57;101612.11;105681;1253;69938;-44
2023/05/09 04:04:09;;;;;;;8.70;6.20;;;;;;;2.52;79.79;101610.14;105740;1251;74835;-44
2023/05/09 04:06:38;;;;;;;7.40;5.80;;;;;;;2.58;80.05;101607.49;105745;1253;82994;-45
2023/05/09 04:09:08;;;;;;;9.70;6.20;;;;;;;2.64;79.95;101608.77;105634;1251;72488;-44
2023/05/09 04:11:36;;;;;;;8.80;5.90;;;;;;;2.70;80.11;101606.27;105859;1251;70188;-44
2023/05/09 04:14:07;;;;;;;11.00;6.90;;;;;;;2.77;80.19;101605.86;105611;1251;69912;-45
2023/05/09 04:16:35;;;;;;;11.00;6.80;;;;;;;2.84;80.59;101605.09;105898;1252;74900;-45
2023/05/09 04:19:05;;;;;;;12.10;7.10;;;;;;;2.93;80.40;101600.90;105653;1251;84164;-44
2023/05/09 04:21:35;;;;;;;12.50;7.10;;;;;;;2.99;80.59;101603.05;105844;1253;73197;-45
2023/05/09 04:24:05;;;;;;;9.20;5.90;;;;;;;3.08;81.10;101605.23;105687;1249;69979;-45
2023/05/09 04:26:38;;;;;;;12.10;7.10;;;;;;;3.20;81.24;101606.09;105671;1251;69887;-45
2023/05/09 04:29:08;;;;;;;9.30;6.80;;;;;;;3.33;81.36;101604.52;105708;1253;73562;-44
2023/05/09 04:31:37;;;;;;;10.50;6.60;;;;;;;3.45;81.36;101598.98;105997;1254;83292;-45
2023/05/09 04:34:06;;;;;;;10.30;5.70;;;;;;;3.57;81.27;101598.40;105710;1252;73413;-46
2023/05/09 04:36:36;;;;;;;9.20;6.50;;;;;;;3.66;81.28;101596.60;105707;1250;69995;-44
2023/05/09 04:39:04;;;;;;;10.40;6.10;;;;;;;3.77;81.12;101593.43;105731;1251;69966;-44
2023/05/09 04:41:33;;;;;;;8.50;5.70;;;;;;;3.90;81.18;101589.23;105716;1253;72840;-44
2023/05/09 04:44:02;;;;;;;10.60;6.40;;;;;;;4.03;81.14;101587.97;105917;1253;83276;-45
2023/05/09 04:46:30;;;;;;;8.90;6.00;;;;;;;4.18;80.99;101587.59;105720;1254;72709;-44
2023/05/09 04:48:58;;;;;;;8.30;5.70;;;;;;;4.35;80.87;101585.29;105609;1254;70118;-45
2023/05/09 04:51:27;;;;;;;8.40;5.50;;;;;;;4.55;80.82;101584.04;105757;1253;69983;-44
2023/05/09 04:53:55;;;;;;;7.70;5.30;;;;;;;4.72;80.63;101579.66;105614;1251;73787;-44
2023/05/09 04:56:27;;;;;;;9.80;5.20;;;;;;;4.89;80.51;101587.71;105645;1254;84169;-44
2023/05/09 04:58:55;;;;;;;9.00;5.00;;;;;;;5.04;79.97;101590.20;105805;1254;73580;-44
2023/05/09 05:01:24;;;;;;;8.60;5.70;;;;;;;5.21;79.61;101589.76;105683;1257;70001;-44
2023/05/09 05:03:54;;;;;;;8.30;4.80;;;;;;;5.36;79.40;101587.91;105838;1252;69864;-45
2023/05/09 05:06:23;;;;;;;7.80;4.60;;;;;;;5.53;79.29;101590.57;105818;1251;74607;-45
2023/05/09 05:08:51;;;;;;;9.80;5.40;;;;;;;5.69;78.73;101591.83;105916;1254;84013;-44
2023/05/09 05:11:20;;;;;;;8.70;5.00;;;;;;;5.84;78.58;101587.50;105730;1251;72795;-46
2023/05/09 05:13:48;;;;;;;9.70;5.50;;;;;;;6.00;78.24;101585.83;105928;1251;69880;-44
2023/05/09 05:16:17;;;;;;;8.40;4.90;;;;;;;6.15;77.79;101579.59;105796;1251;69999;-46
2023/05/09 05:18:46;;;;;;;8.00;4.90;;;;;;;6.30;77.30;101579.07;105934;1253;75107;-44
2023/05/09 05:21:15;;;;;;;9.50;4.80;;;;;;;6.44;77.21;101581.32;105951;1253;82185;-44
2023/05/09 05:23:44;;;;;;;9.80;4.90;;;;;;;6.58;77.03;101578.16;105971;1251;74127;-44
2023/05/09 05:26:12;;;;;;;8.40;5.30;;;;;;;6.72;76.74;101576.23;105810;1251;70777;-44
2023/05/09 05:28:41;;;;;;;8.00;4.80;;;;;;;6.85;76.38;101571.52;105704;1251;69980;-44
2023/05/09 05:31:09;;;;;;;9.80;4.80;;;;;;;6.98;76.21;101573.36;105820;1252;74532;-44
2023/05/09 05:33:37;;;;;;;8.40;4.80;;;;;;;7.12;75.98;101567.93;105887;1251;83662;-44
2023/05/09 05:36:06;;;;;;;6.70;4.50;;;;;;;7.25;75.71;101564.21;105507;1251;180953;-45
2023/05/09 05:38:35;;;;;;;7.20;4.80;;;;;;;7.36;75.27;101564.52;105755;1251;69976;-44
2023/05/09 05:41:03;;;;;;;7.70;5.00;;;;;;;7.49;75.01;101563.41;105941;1251;70011;-44
2023/05/09 05:43:33;;;;;;;12.80;5.00;;;;;;;7.61;74.79;101560.37;105754;1251;73457;-45
2023/05/09 05:46:01;;;;;;;9.00;4.30;;;;;;;7.72;74.50;101560.66;105832;1253;83304;-45
2023/05/09 05:48:30;;;;;;;6.60;4.70;;;;;;;7.83;74.47;101563.70;105909;1251;72758;-46
2023/05/09 05:50:59;;;;;;;7.50;4.40;;;;;;;7.99;74.05;101562.21;109483;1250;67954;-45
2023/05/09 05:53:29;;;;;;;6.30;4.20;;;;;;;8.14;73.64;101562.61;108971;1250;68431;-44
2023/05/09 05:56:00;;;;;;;7.20;4.10;;;;;;;8.26;73.02;101561.11;105885;1251;74898;-45
2023/05/09 05:58:29;;;;;;;5.90;3.80;;;;;;;8.40;72.92;101558.74;109322;1250;83378;-60
2023/05/09 06:00:57;;;;;;;6.00;4.00;;;;;;;8.53;72.35;101558.10;105906;1251;73760;-60
2023/05/09 06:03:26;;;;;;;7.30;4.20;;;;;;;8.66;72.42;101555.17;105735;1255;69175;-59
2023/05/09 06:05:58;;;;;;;6.90;4.70;;;;;;;8.79;72.22;101550.16;105716;1251;69062;-61
2023/05/09 06:08:26;;;;;;;7.50;4.90;;;;;;;8.93;71.87;101549.48;106001;1250;74216;-56
2023/05/09 06:10:55;;;;;;;5.70;4.10;;;;;;;9.04;71.56;101546.36;105730;1256;83506;-60
2023/05/09 06:13:23;;;;;;;6.40;4.30;;;;;;;9.13;71.18;101542.24;105787;1251;73472;-59
2023/05/09 06:15:56;;;;;;;8.10;4.30;;;;;;;9.22;70.88;101536.55;105746;1254;69202;-53
2023/05/09 06:18:36;;;;;;;11.00;4.80;;;;;;;9.32;70.53;101542.87;106071;1251;69070;-59
2023/05/09 06:21:05;;;;;;;7.30;5.00;;;;;;;9.39;70.03;101539.46;106124;1251;74000;-56
2023/05/09 06:23:35;;;;;;;6.40;4.70;;;;;;;9.48;69.83;101544.75;105941;1252;83246;-58
2023/05/09 06:26:07;;;;;;;7.90;4.50;;;;;;;9.56;69.46;101544.80;105722;1253;73140;-60
2023/05/09 06:28:36;;;;;;;7.60;4.90;;;;;;;9.62;69.36;101539.83;105770;1250;69005;-60
2023/05/09 06:31:04;;;;;;;8.90;4.70;;;;;;;9.71;69.03;101542.31;105680;1250;69108;-60
2023/05/09 06:33:32;;;;;;;6.90;4.80;;;;;;;9.77;69.01;101538.38;105738;1253;75075;-60
2023/05/09 06:36:01;;;;;;;7.50;4.70;;;;;;;9.87;68.77;101537.53;105748;1251;83528;-60
2023/05/09 06:38:29;;;;;;;7.80;4.80;;;;;;;9.97;68.68;101531.95;105689;1251;73729;-60
2023/05/09 06:40:57;;;;;;;8.70;4.60;;;;;;;10.08;68.54;101531.95;105665;1253;69125;-60
2023/05/09 06:43:26;;;;;;;7.00;4.40;;;;;;;10.19;68.32;101528.27;105732;1253;69147;-60
2023/05/09 06:45:54;;;;;;;6.70;4.30;;;;;;;10.29;68.19;101528.46;105740;1251;74852;-60
2023/05/09 06:48:22;;;;;;;5.80;4.00;;;;;;;10.41;67.54;101521.10;105760;1250;83204;-60
2023/05/09 06:50:51;;;;;;;4.80;3.80;;;;;;;10.52;67.03;101520.52;105769;1253;73771;-60
2023/05/09 06:53:19;;;;;;;8.40;3.90;;;;;;;10.64;65.97;101526.61;105789;1253;69134;-60
2023/05/09 06:55:47;;;;;;;6.50;3.40;;;;;;;10.72;65.73;101516.65;105810;1253;69115;-60
2023/05/09 06:58:16;;;;;;;7.10;3.40;;;;;;;10.84;65.01;101517.81;105793;1251;74791;-60
2023/05/09 07:00:44;;;;;;;7.40;3.80;;;;;;;10.90;64.53;101514.36;105778;1251;82981;-60
2023/05/09 07:03:12;;;;;;;4.70;3.40;;;;;;;10.97;63.95;101517.02;105767;1253;73171;-60
2023/05/09 07:05:40;;;;;;;4.40;3.40;;;;;;;11.03;63.57;101513.93;105960;1253;69210;-60
2023/05/09 07:08:09;;;;;;;5.50;3.30;;;;;;;11.12;63.70;101514.25;105738;1252;69185;-60
2023/05/09 07:10:37;;;;;;;5.10;3.60;;;;;;;11.20;62.93;101515.30;105842;1253;74558;-60
2023/05/09 07:13:06;;;;;;;5.10;3.60;;;;;;;11.27;62.70;101510.27;105698;1251;83279;-60
2023/05/09 07:15:34;;;;;;;5.80;3.50;;;;;;;11.34;62.43;101511.48;105782;1251;74008;-60
2023/05/09 07:18:09;;;;;;;3.80;3.30;;;;;;;11.43;62.20;101506.77;105914;1251;70128;-60
2023/05/09 07:20:38;;;;;;;5.20;3.80;;;;;;;11.51;61.91;101506.74;105704;1253;69204;-60
2023/05/09 07:23:06;;;;;;;5.70;3.90;;;;;;;11.58;61.63;101508.31;105720;1251;75044;-60
2023/05/09 07:25:34;;;;;;;8.20;4.40;;;;;;;11.63;60.87;101505.05;105743;1253;83143;-60
2023/05/09 07:28:02;;;;;;;5.80;4.00;;;;;;;11.68;61.17;101500.05;105792;1251;73746;-60
2023/05/09 07:30:30;;;;;;;6.20;3.70;;;;;;;11.78;60.56;101488.59;105720;1250;69183;-60
2023/05/09 07:33:00;;;;;;;7.20;4.10;;;;;;;11.85;60.43;101489.14;105813;1251;69112;-60
2023/05/09 07:35:28;;;;;;;5.10;3.80;;;;;;;11.92;60.28;101488.80;105789;1253;73814;-60
2023/05/09 07:37:57;;;;;;;7.10;4.30;;;;;;;11.99;59.85;101489.64;105764;1253;83281;-60
2023/05/09 07:40:25;;;;;;;6.10;4.00;;;;;;;12.05;59.46;101484.08;105665;1253;73945;-60
2023/05/09 07:42:55;;;;;;;5.00;3.90;;;;;;;12.13;59.41;101485.27;105799;1250;69087;-60
2023/05/09 07:45:23;;;;;;;;;;;;;;;12.20;59.06;101485.09;105777;1253;69060;-60
2023/05/09 07:47:51;;;;;;;6.10;3.70;;;;;;;12.29;58.93;101476.45;105759;1251;75017;-60
2023/05/09 07:50:22;;;;;;;5.60;3.40;;;;;;;12.37;58.91;101468.86;105804;1253;83436;-60
2023/05/09 07:52:51;;;;;;;4.50;3.10;;;;;;;12.49;58.67;101465.56;105757;1253;74156;-60
2023/05/09 07:55:20;;;;;;;7.00;3.90;;;;;;;12.61;58.76;101466.08;105770;1250;69167;-60
2023/05/09 07:57:48;;;;;;;7.80;3.90;;;;;;;12.72;57.97;101468.41;105810;1256;69199;-60
2023/05/09 08:00:22;;;;;;;4.70;3.60;;;;;;;12.78;57.77;101460.16;105917;1251;74692;-60
2023/05/09 08:02:50;;;;;;;5.50;3.60;;;;;;;12.84;57.45;101456.14;105815;1253;83530;-60
2023/05/09 08:05:19;;;;;;;4.70;3.70;;;;;;;12.88;57.13;101456.17;105818;1253;72528;-60
2023/05/09 08:07:47;;;;;;;5.60;3.50;;;;;;;12.96;57.03;101449.45;105817;1253;69186;-60
2023/05/09 08:10:16;;;;;;;5.50;4.10;;;;;;;13.05;56.92;101450.25;105761;1253;69186;-60
2023/05/09 08:12:44;;;;;;;5.20;3.40;;;;;;;13.10;56.37;101446.03;105732;1253;74594;-60
2023/05/09 08:15:12;;;;;;;6.00;3.90;;;;;;;13.18;56.53;101441.58;105777;1253;83173;-60
2023/05/09 08:17:41;;;;;;;6.70;4.20;;;;;;;13.29;56.27;101441.10;105872;1249;73423;-60
2023/05/09 08:20:10;;;;;;;5.70;3.90;;;;;;;13.39;55.98;101439.56;105793;1251;69064;-60
2023/05/09 08:22:39;;;;;;;8.50;4.50;;;;;;;13.41;55.28;101442.14;105778;1251;69163;-60
2023/05/09 08:25:08;;;;;;;8.30;3.60;;;;;;;13.33;54.78;101430.95;105890;1251;74740;-60
2023/05/09 08:27:36;;;;;;;6.50;3.90;;;;;;;13.40;54.96;101425.65;105766;1251;83408;-61
2023/05/09 08:30:05;;;;;;;6.10;3.70;;;;;;;13.55;55.29;101423.58;105743;1251;73064;-60
2023/05/09 08:32:34;;;;;;;5.20;3.90;;;;;;;13.71;54.87;101424.66;105887;1253;69231;-60
2023/05/09 08:35:02;;;;;;;5.40;3.90;;;;;;;13.82;54.62;101419.33;105785;1250;69173;-60
2023/05/09 08:37:30;;;;;;;6.10;4.00;;;;;;;13.91;54.00;101413.06;105772;1250;73887;-60
2023/05/09 08:39:59;;;;;;;5.50;4.00;;;;;;;13.98;54.57;101398.92;105682;1251;84009;-60
2023/05/09 08:42:28;;;;;;;4.80;3.50;;;;;;;14.14;54.33;101389.59;105755;1250;72480;-61
2023/05/09 08:44:58;;;;;;;4.90;3.80;;;;;;;14.24;53.77;101388.67;105695;1256;69701;-60
2023/05/09 08:47:27;;;;;;;4.60;3.50;;;;;;;14.38;53.90;101386.23;105882;1250;69077;-60
2023/05/09 08:49:55;;;;;;;6.30;3.80;;;;;;;14.50;53.44;101389.48;105785;1250;74887;-60
2023/05/09 08:52:24;;;;;;;5.80;3.80;;;;;;;14.60;53.13;101388.77;105763;1251;82536;-60
2023/05/09 08:54:52;;;;;;;6.30;3.80;;;;;;;14.62;52.64;101386.42;105740;1253;72699;-60
2023/05/09 08:57:20;;;;;;;6.10;3.40;;;;;;;14.65;52.39;101380.83;105705;1250;69525;-61
2023/05/09 08:59:50;;;;;;;5.50;3.90;;;;;;;14.75;52.63;101378.88;105712;1253;69192;-60
2023/05/09 09:02:18;;;;;;;5.40;4.10;;;;;;;14.86;52.55;101369.48;105741;1253;73624;-61
2023/05/09 09:04:47;;;;;;;4.10;3.40;;;;;;;14.97;52.14;101373.81;105740;1251;82514;-61
2023/05/09 09:07:16;;;;;;;6.30;3.80;;;;;;;15.08;52.36;101368.08;105653;1256;73358;-61
2023/05/09 09:09:46;;;;;;;7.20;3.40;;;;;;;15.18;51.71;101366.96;105736;1251;69163;-61
2023/05/09 09:12:15;;;;;;;4.80;3.20;;;;;;;15.27;51.63;101359.91;105773;1250;68994;-61
2023/05/09 09:14:49;;;;;;;6.80;3.70;;;;;;;15.37;51.01;101357.88;105793;1251;74972;-61
2023/05/09 09:17:20;;;;;;;5.40;3.20;;;;;;;15.47;51.01;101354.86;105764;1251;82007;-61
2023/05/09 09:19:49;;;;;;;5.30;3.50;;;;;;;15.55;50.43;101365.93;105708;1250;72779;-61
2023/05/09 09:22:18;;;;;;;4.40;3.00;;;;;;;15.62;50.19;101363.38;105733;1250;69570;-60
2023/05/09 09:24:46;;;;;;;10.20;3.30;;;;;;;15.67;49.98;101362.64;105886;1253;69237;-61
2023/05/09 09:27:15;;;;;;;4.90;3.70;;;;;;;15.78;49.89;101360.76;105827;1251;74883;-61
2023/05/09 09:29:43;;;;;;;3.90;3.30;;;;;;;15.89;49.73;101355.36;105910;1250;83528;-60
2023/05/09 09:32:12;;;;;;;5.80;3.20;;;;;;;15.97;49.16;101359.59;105707;1253;73478;-60
2023/05/09 09:34:40;;;;;;;5.20;3.40;;;;;;;15.99;48.81;101355.96;105732;1251;69104;-61
2023/05/09 09:37:08;;;;;;;5.50;3.40;;;;;;;15.99;48.72;101351.91;105758;1253;69114;-61
2023/05/09 09:39:36;;;;;;;4.30;3.30;;;;;;;16.08;49.06;101342.15;105708;1251;74871;-61
2023/05/09 09:42:12;;;;;;;6.10;3.50;;;;;;;16.21;48.72;101341.41;105679;1251;83895;-61
2023/05/09 09:44:40;;;;;;;4.70;3.40;;;;;;;16.35;48.55;101339.36;105714;1250;73693;-61
2023/05/09 09:47:10;;;;;;;5.00;3.70;;;;;;;16.45;48.36;101338.56;105770;1250;69128;-61
2023/05/09 09:49:44;;;;;;;6.60;3.60;;;;;;;16.57;48.31;101339.40;105746;1251;69227;-61
2023/05/09 09:52:21;;;;;;;5.30;3.70;;;;;;;16.68;47.92;101345.91;105650;1253;73839;-61
2023/05/09 09:54:50;;;;;;;8.30;3.70;;;;;;;16.75;47.71;101341.38;105815;1250;83400;-61
2023/05/09 09:57:38;;;;;;;7.00;3.70;;;;;;;16.90;47.71;101338.20;105713;1253;74139;-61
2023/05/09 10:00:07;;;;;;;5.10;3.30;;;;;;;17.03;47.13;101328.23;105739;1251;69195;-61
2023/05/09 10:02:47;;;;;;;4.10;3.00;;;;;;;17.19;47.39;101327.98;105710;1249;69224;-61
2023/05/09 10:05:26;;;;;;;6.20;3.10;;;;;;;17.35;46.79;101323.23;105680;1251;74276;-61
2023/05/09 10:07:56;;;;;;;5.10;2.60;;;;;;;17.46;46.42;101323.06;105729;1251;82260;-61
2023/05/09 10:10:30;;;;;;;7.80;2.90;;;;;;;17.65;46.57;101315.18;105736;1251;73860;-61
2023/05/09 10:13:10;;;;;;;3.60;3.20;;;;;;;17.93;46.16;101315.15;105752;1250;69148;-61
2023/05/09 10:15:40;;;;;;;4.00;2.80;;;;;;;18.18;45.86;101315.44;105830;1251;69070;-61
2023/05/09 10:18:25;;;;;;;6.90;3.40;;;;;;;18.32;44.90;101308.48;105784;1250;73805;-61
2023/05/09 10:20:55;;;;;;;7.20;3.20;;;;;;;18.41;44.69;101312.02;105768;1253;83392;-61
2023/05/09 10:23:24;;;;;;;7.00;3.00;;;;;;;18.50;44.39;101307.13;105720;1253;72780;-61
2023/05/09 10:26:17;;;;;;;4.40;3.00;;;;;;;18.60;43.77;101295.92;105611;1251;69231;-61
2023/05/09 10:28:48;;;;;;;6.90;3.20;;;;;;;18.75;43.84;101295.59;105766;1251;69145;-61
2023/05/09 10:31:27;;;;;;;5.00;2.90;;;;;;;18.85;43.25;101290.98;105814;1253;73827;-61
2023/05/09 10:33:56;;;;;;;6.80;3.30;;;;;;;18.96;42.83;101283.11;105613;1250;82572;-61
2023/05/09 10:36:24;;;;;;;6.00;2.80;;;;;;;19.10;42.65;101283.89;105676;1250;73707;-61
2023/05/09 10:38:53;;;;;;;6.60;2.90;;;;;;;19.21;42.36;101284.30;105578;1249;69181;-61
2023/05/09 10:41:22;;;;;;;6.00;2.90;;;;;;;19.45;42.27;101280.05;105780;1253;69214;-61
2023/05/09 10:43:51;;;;;;;8.60;2.90;;;;;;;19.69;42.00;101275.06;105733;1253;73795;-62
2023/05/09 10:46:22;;;;;;;5.20;2.70;;;;;;;19.85;41.52;101265.08;105743;1251;83371;-61
2023/05/09 10:48:51;;;;;;;6.00;3.10;;;;;;;19.90;41.41;101270.19;105808;1253;73959;-62
2023/05/09 10:51:20;;;;;;;6.90;2.70;;;;;;;20.02;41.23;101260.97;105840;1250;69143;-62
2023/05/09 10:53:49;;;;;;;3.70;2.40;;;;;;;20.19;41.22;101249.55;105786;1251;69120;-61
2023/05/09 10:56:31;;;;;;;4.10;3.40;;;;;;;20.36;40.39;101264.13;105894;1250;75196;-62
2023/05/09 10:59:01;;;;;;;6.90;2.70;;;;;;;20.35;39.97;101256.88;105770;1251;83682;-61
2023/05/09 11:01:35;;;;;;;9.80;3.30;;;;;;;20.46;40.26;101250.30;105786;1250;72685;-62
2023/05/09 11:04:13;;;;;;;9.30;3.30;;;;;;;20.64;39.93;101255.02;105731;1251;69119;-62
2023/05/09 11:06:49;;;;;;;3.50;2.50;;;;;;;20.81;39.65;101245.95;105726;1251;69071;-61
2023/05/09 11:09:37;;;;;;;5.10;2.70;;;;;;;20.98;39.44;101244.65;105728;1253;73862;-62
2023/05/09 11:12:13;;;;;;;6.10;3.20;;;;;;;20.90;38.95;101236.64;105909;1253;82423;-61
2023/05/09 11:14:43;;;;;;;4.70;3.00;;;;;;;20.86;38.77;101229.58;105770;1250;72836;-62
2023/05/09 11:17:11;;;;;;;4.10;2.80;;;;;;;21.05;39.12;101226.20;105785;1251;69022;-62
2023/05/09 11:19:46;;;;;;;6.30;2.60;;;;;;;21.23;38.98;101226.38;105869;1250;69109;-62
2023/05/09 11:22:28;;;;;;;4.70;3.00;;;;;;;21.35;38.31;101220.41;105800;1251;74829;-62
2023/05/09 11:25:04;;;;;;;3.90;2.60;;;;;;;21.22;37.61;101204.64;105760;1250;82825;-61
2023/05/09 11:27:47;;;;;;;3.10;2.60;;;;;;;21.25;37.86;101202.99;105737;1251;73550;-61
2023/05/09 11:30:17;;;;;;;3.70;2.80;;;;;;;21.34;37.69;101208.38;105748;1250;69125;-62
2023/05/09 11:32:53;;;;;;;6.70;2.80;;;;;;;21.50;37.43;101209.59;105713;1253;69132;-62
2023/05/09 11:35:22;;;;;;;6.10;2.80;;;;;;;21.55;36.73;101203.53;105811;1253;73944;-62